Time;durP1;ratioP1;P1;durP2;ratioP2;P2;SDS_P1;SDS_P2;PMS_P1;PMS_P2;Temp;Humidity;BMP_temperature;BMP_pressure;BME280_temperature;BME280_humidity;BME280_pressure;Samples;Min_cycle;Max_cycle;Signal;HPM_P1;HPM_P2
2022/10/24 00:00:48;;;;;;;3.55;1.70;;;15.80;99.90;;;;;;5072766;28;20334;-75
2022/10/24 00:03:14;;;;;;;5.00;2.00;;;15.80;99.90;;;;;;5073633;28;20450;-75
2022/10/24 00:05:45;;;;;;;5.60;1.70;;;15.80;99.90;;;;;;5073668;28;20032;-74
2022/10/24 00:08:11;;;;;;;7.82;1.50;;;15.90;99.90;;;;;;5074039;28;20017;-74
2022/10/24 00:10:41;;;;;;;5.82;1.90;;;15.90;99.90;;;;;;5073779;28;20031;-73
2022/10/24 00:13:06;;;;;;;3.80;1.65;;;15.90;99.90;;;;;;5073504;28;20091;-74
2022/10/24 00:15:32;;;;;;;7.65;1.85;;;15.90;99.90;;;;;;5073582;28;20056;-74
2022/10/24 00:17:58;;;;;;;4.20;1.63;;;16.00;99.90;;;;;;5072460;28;20123;-73
2022/10/24 00:20:23;;;;;;;6.80;1.65;;;16.00;99.90;;;;;;5073755;28;20032;-75
2022/10/24 00:22:49;;;;;;;9.75;1.80;;;16.00;99.90;;;;;;5072709;28;20032;-75
2022/10/24 00:25:15;;;;;;;7.55;1.95;;;16.10;99.90;;;;;;5073662;28;20047;-75
2022/10/24 00:27:41;;;;;;;7.28;1.85;;;16.10;99.90;;;;;;5073304;28;20032;-74
2022/10/24 00:30:07;;;;;;;9.52;2.67;;;16.10;99.90;;;;;;5073496;28;20473;-75
2022/10/24 00:32:32;;;;;;;6.13;2.10;;;16.10;99.90;;;;;;5073156;28;20039;-75
2022/10/24 00:34:58;;;;;;;10.20;1.92;;;16.10;99.90;;;;;;5073616;28;20032;-76
2022/10/24 00:37:24;;;;;;;7.10;1.77;;;16.10;99.90;;;;;;5073104;28;20040;-74
2022/10/24 00:39:49;;;;;;;3.22;1.33;;;16.10;99.90;;;;;;5072911;28;20486;-75
2022/10/24 00:42:15;;;;;;;6.15;1.52;;;16.10;99.90;;;;;;5073108;28;20071;-75
2022/10/24 00:44:41;;;;;;;5.60;1.58;;;16.10;99.90;;;;;;5073142;28;20083;-75
2022/10/24 00:47:12;;;;;;;7.20;2.03;;;16.10;99.90;;;;;;5073448;28;20036;-74
2022/10/24 00:49:59;;;;;;;5.47;1.80;;;16.10;99.90;;;;;;5072885;28;20021;-74
2022/10/24 00:52:29;;;;;;;4.45;1.50;;;16.10;99.90;;;;;;5072831;28;20040;-75
2022/10/24 00:54:57;;;;;;;5.68;1.70;;;16.10;99.90;;;;;;5072795;28;20040;-75
2022/10/24 00:57:49;;;;;;;5.63;1.90;;;16.10;99.90;;;;;;5072786;28;20043;-74
2022/10/24 01:00:27;;;;;;;5.85;1.85;;;16.00;99.90;;;;;;5071080;28;20025;-74
2022/10/24 01:02:54;;;;;;;7.47;1.60;;;16.00;99.90;;;;;;5072579;28;20034;-74
2022/10/24 01:05:25;;;;;;;7.55;3.20;;;15.90;99.90;;;;;;5073286;28;20053;-74
2022/10/24 01:08:19;;;;;;;7.25;1.98;;;15.90;99.90;;;;;;5072833;28;20112;-74
2022/10/24 01:11:22;;;;;;;8.05;1.83;;;15.80;99.90;;;;;;5071825;28;20028;-75
2022/10/24 01:13:53;;;;;;;10.75;1.80;;;15.80;99.90;;;;;;5072119;28;20110;-74
2022/10/24 01:16:35;;;;;;;5.00;1.77;;;15.80;99.90;;;;;;5072358;28;20060;-74
2022/10/24 01:19:58;;;;;;;8.32;1.83;;;15.80;99.90;;;;;;5071089;28;20047;-74
2022/10/24 01:22:35;;;;;;;11.88;1.77;;;15.80;99.90;;;;;;5029889;28;20033;-74
2022/10/24 01:25:01;;;;;;;8.90;1.65;;;15.80;99.90;;;;;;5030095;28;20050;-75
2022/10/24 01:27:56;;;;;;;4.32;2.10;;;15.70;99.90;;;;;;5052696;28;20366;-74
2022/10/24 01:30:23;;;;;;;11.48;2.10;;;15.70;99.90;;;;;;5064556;28;20124;-73
2022/10/24 01:33:03;;;;;;;2.83;1.52;;;15.70;99.90;;;;;;5070983;28;20454;-72
2022/10/24 01:35:41;;;;;;;7.00;1.90;;;15.70;99.90;;;;;;5072295;28;20033;-72
2022/10/24 01:38:22;;;;;;;8.48;2.78;;;15.70;99.90;;;;;;5072049;28;20045;-73
2022/10/24 01:41:00;;;;;;;8.20;2.33;;;15.80;99.90;;;;;;5071851;28;20039;-74
2022/10/24 01:44:01;;;;;;;3.78;1.67;;;15.80;99.90;;;;;;5072081;28;20043;-72
2022/10/24 01:47:06;;;;;;;4.25;1.73;;;15.80;99.90;;;;;;5071626;28;20089;-74
2022/10/24 01:49:36;;;;;;;5.28;2.50;;;15.80;99.90;;;;;;5071751;28;20027;-75
2022/10/24 01:52:06;;;;;;;8.45;2.13;;;15.80;99.90;;;;;;5071677;28;20517;-75
2022/10/24 01:54:34;;;;;;;5.75;2.13;;;15.80;99.90;;;;;;5071812;28;20097;-76
2022/10/24 01:57:00;;;;;;;6.07;2.20;;;15.80;99.90;;;;;;5071693;28;20059;-75
2022/10/24 01:59:28;;;;;;;4.88;2.22;;;15.80;99.90;;;;;;5072024;28;20288;-75
2022/10/24 02:02:17;;;;;;;7.60;2.38;;;15.80;99.90;;;;;;5071988;28;20027;-75
2022/10/24 02:04:54;;;;;;;7.70;2.17;;;15.80;99.90;;;;;;5070859;28;20306;-74
2022/10/24 02:07:22;;;;;;;7.38;2.50;;;15.70;99.90;;;;;;5071365;28;20370;-75
2022/10/24 02:09:52;;;;;;;7.88;2.08;;;15.70;99.90;;;;;;5070279;28;20033;-75
2022/10/24 02:12:21;;;;;;;4.78;1.88;;;15.70;99.90;;;;;;5071371;28;20048;-75
2022/10/24 02:14:52;;;;;;;10.32;2.17;;;15.70;99.90;;;;;;5071486;28;20025;-74
2022/10/24 02:17:18;;;;;;;4.95;2.35;;;15.80;99.90;;;;;;5071896;28;20262;-74
2022/10/24 02:19:45;;;;;;;7.47;1.80;;;15.80;99.90;;;;;;5070963;28;20031;-74
2022/10/24 02:22:21;;;;;;;4.30;2.28;;;15.70;99.90;;;;;;5070919;28;20028;-74
2022/10/24 02:25:05;;;;;;;5.15;2.58;;;15.70;99.90;;;;;;5071228;28;20040;-73
2022/10/24 02:27:37;;;;;;;4.25;2.35;;;15.70;99.90;;;;;;5070972;28;20547;-75
2022/10/24 02:30:08;;;;;;;10.98;2.75;;;15.70;99.90;;;;;;5069894;28;20059;-75
2022/10/24 02:32:46;;;;;;;4.60;2.20;;;15.70;99.90;;;;;;5070915;28;20432;-74
2022/10/24 02:35:14;;;;;;;3.95;2.53;;;15.70;99.90;;;;;;5071315;28;20103;-74
2022/10/24 02:37:46;;;;;;;10.23;2.47;;;15.70;99.90;;;;;;5070979;28;20024;-75
2022/10/24 02:40:14;;;;;;;3.85;1.65;;;15.70;99.90;;;;;;5069758;28;20075;-74
2022/10/24 02:42:43;;;;;;;5.63;2.20;;;15.70;99.90;;;;;;5070851;28;20041;-74
2022/10/24 02:45:10;;;;;;;10.15;1.90;;;15.70;99.90;;;;;;5070813;28;20042;-74
2022/10/24 02:47:38;;;;;;;3.63;1.83;;;15.80;99.90;;;;;;5070686;28;20024;-74
2022/10/24 02:50:04;;;;;;;8.70;2.50;;;15.80;99.90;;;;;;5070191;28;20020;-75
2022/10/24 02:52:30;;;;;;;7.55;2.13;;;15.80;99.90;;;;;;5070802;28;20501;-74
2022/10/24 02:54:56;;;;;;;5.90;1.90;;;15.80;99.90;;;;;;5070738;28;20039;-74
2022/10/24 02:57:22;;;;;;;6.88;1.92;;;15.80;99.90;;;;;;5070940;28;20029;-74
2022/10/24 02:59:48;;;;;;;6.55;2.03;;;15.80;99.90;;;;;;5070821;28;20095;-74
2022/10/24 03:02:14;;;;;;;5.82;2.17;;;15.80;99.90;;;;;;5071061;28;20168;-72
2022/10/24 03:04:40;;;;;;;9.68;2.40;;;15.80;99.90;;;;;;5069326;28;20651;-74
2022/10/24 03:07:06;;;;;;;6.22;2.15;;;15.80;99.90;;;;;;5070462;28;20067;-74
2022/10/24 03:09:33;;;;;;;9.98;2.35;;;15.80;99.90;;;;;;5070575;28;20044;-74
2022/10/24 03:11:58;;;;;;;7.95;1.98;;;15.80;99.90;;;;;;5070407;28;20036;-74
2022/10/24 03:14:24;;;;;;;7.35;2.08;;;15.80;99.90;;;;;;5070731;28;20028;-74
2022/10/24 03:16:50;;;;;;;9.23;2.20;;;15.90;99.90;;;;;;5070357;28;20033;-74
2022/10/24 03:19:15;;;;;;;4.40;2.28;;;15.90;99.90;;;;;;5069292;28;20028;-74
2022/10/24 03:21:41;;;;;;;6.38;1.98;;;15.90;99.90;;;;;;5069453;28;20032;-74
2022/10/24 03:24:07;;;;;;;9.88;2.53;;;15.90;99.90;;;;;;5070287;28;20473;-74
2022/10/24 03:26:33;;;;;;;8.18;2.30;;;15.90;99.90;;;;;;5070240;28;20040;-74
2022/10/24 03:28:58;;;;;;;8.75;2.33;;;15.90;99.90;;;;;;5070786;28;20454;-74
2022/10/24 03:31:25;;;;;;;5.57;2.10;;;16.00;99.90;;;;;;5070142;28;20355;-74
2022/10/24 03:33:50;;;;;;;8.18;2.58;;;16.00;99.90;;;;;;5069322;28;20032;-75
2022/10/24 03:36:16;;;;;;;9.02;2.38;;;16.00;99.90;;;;;;5072593;28;20028;-75
2022/10/24 03:38:42;;;;;;;9.30;2.10;;;16.00;99.90;;;;;;5073015;28;20021;-73
2022/10/24 03:41:07;;;;;;;5.45;2.15;;;16.00;99.90;;;;;;5074593;28;20094;-74
2022/10/24 03:43:33;;;;;;;8.55;2.65;;;16.00;99.90;;;;;;5072987;28;20025;-73
2022/10/24 03:45:59;;;;;;;13.40;2.78;;;16.00;99.90;;;;;;5072947;28;20495;-73
2022/10/24 03:48:25;;;;;;;8.60;2.20;;;16.00;99.90;;;;;;5073782;28;20454;-74
2022/10/24 03:50:51;;;;;;;8.20;2.60;;;16.00;99.90;;;;;;5072794;28;20374;-73
2022/10/24 03:53:16;;;;;;;6.35;2.22;;;16.00;99.90;;;;;;5074446;28;20021;-74
2022/10/24 03:55:42;;;;;;;7.57;2.63;;;16.00;99.90;;;;;;5073772;28;20036;-75
2022/10/24 03:58:08;;;;;;;10.02;2.47;;;16.00;99.90;;;;;;5073799;28;20128;-75
2022/10/24 04:00:38;;;;;;;7.30;3.30;;;16.00;99.90;;;;;;5073735;28;20040;-74
2022/10/24 04:03:04;;;;;;;12.15;2.67;;;16.00;99.90;;;;;;5073525;28;20081;-73
2022/10/24 04:05:29;;;;;;;8.30;2.63;;;15.90;99.90;;;;;;5073684;28;20060;-71
2022/10/24 04:07:55;;;;;;;7.95;2.33;;;15.90;99.90;;;;;;5073939;28;20067;-73
2022/10/24 04:10:21;;;;;;;15.30;3.10;;;15.90;99.90;;;;;;5073592;28;20033;-74
2022/10/24 04:12:46;;;;;;;6.60;2.78;;;15.90;99.90;;;;;;5073496;28;20037;-73
2022/10/24 04:15:12;;;;;;;8.60;2.22;;;15.90;99.90;;;;;;5073286;28;20060;-74
2022/10/24 04:17:38;;;;;;;9.88;3.03;;;15.90;99.90;;;;;;5073376;28;20043;-73
2022/10/24 04:20:04;;;;;;;5.85;2.35;;;15.90;99.90;;;;;;5072963;28;20103;-74
2022/10/24 04:22:30;;;;;;;4.50;2.30;;;15.90;99.90;;;;;;5072344;28;20041;-74
2022/10/24 04:24:56;;;;;;;9.38;2.95;;;15.90;99.90;;;;;;5073515;28;20390;-74
2022/10/24 04:27:21;;;;;;;8.18;3.25;;;15.90;99.90;;;;;;5073272;28;20040;-74
2022/10/24 04:29:47;;;;;;;7.80;2.85;;;15.90;99.90;;;;;;5073190;28;20063;-73
2022/10/24 04:32:12;;;;;;;11.88;2.75;;;15.90;99.90;;;;;;5073575;28;20409;-74
2022/10/24 04:34:38;;;;;;;7.55;3.38;;;15.90;99.90;;;;;;5073120;28;20025;-74
2022/10/24 04:37:04;;;;;;;9.63;2.42;;;15.90;99.90;;;;;;5072987;28;20082;-74
2022/10/24 04:39:30;;;;;;;17.33;3.17;;;15.90;99.90;;;;;;5073154;28;20174;-74
2022/10/24 04:41:55;;;;;;;12.55;2.90;;;15.90;99.90;;;;;;5072924;28;20462;-74
2022/10/24 04:44:21;;;;;;;10.45;3.95;;;15.90;99.90;;;;;;5073340;28;20060;-74
2022/10/24 04:46:47;;;;;;;8.23;2.63;;;15.90;99.90;;;;;;5072688;28;20048;-75
2022/10/24 04:49:12;;;;;;;9.43;2.67;;;15.90;99.90;;;;;;5072957;28;20112;-74
2022/10/24 04:51:38;;;;;;;9.18;2.72;;;15.90;99.90;;;;;;5073099;28;20521;-75
2022/10/24 04:54:05;;;;;;;9.57;2.92;;;15.90;99.90;;;;;;5072657;28;20112;-74
2022/10/24 04:56:31;;;;;;;6.07;2.67;;;15.90;99.90;;;;;;5072856;28;20081;-74
2022/10/24 04:58:56;;;;;;;10.57;3.17;;;15.90;99.90;;;;;;5072224;28;20107;-74
2022/10/24 05:01:22;;;;;;;10.75;2.78;;;15.90;99.90;;;;;;5072719;28;20090;-74
2022/10/24 05:03:48;;;;;;;9.38;3.00;;;15.90;99.90;;;;;;5071569;28;20040;-74
2022/10/24 05:06:14;;;;;;;9.55;2.80;;;15.90;99.90;;;;;;5072439;28;20036;-74
2022/10/24 05:08:39;;;;;;;11.18;3.13;;;15.90;99.90;;;;;;5072446;28;20025;-74
2022/10/24 05:11:05;;;;;;;16.45;3.55;;;15.90;99.90;;;;;;5073261;28;20029;-74
2022/10/24 05:13:31;;;;;;;13.23;3.08;;;16.00;99.90;;;;;;5072246;28;20123;-73
2022/10/24 05:15:56;;;;;;;11.10;3.13;;;16.00;99.90;;;;;;5072171;28;20035;-73
2022/10/24 05:18:22;;;;;;;9.80;2.90;;;16.00;99.90;;;;;;5072319;28;20033;-73
2022/10/24 05:20:47;;;;;;;11.70;3.28;;;16.00;99.90;;;;;;5071224;28;20041;-74
2022/10/24 05:23:13;;;;;;;9.48;2.78;;;16.00;99.90;;;;;;5072740;28;20027;-73
2022/10/24 05:25:39;;;;;;;5.43;2.30;;;16.00;99.90;;;;;;5072098;28;20048;-75
2022/10/24 05:28:04;;;;;;;14.73;3.55;;;16.00;99.90;;;;;;5071792;28;20025;-74
2022/10/24 05:30:30;;;;;;;11.23;3.10;;;16.10;99.90;;;;;;5072589;28;20060;-73
2022/10/24 05:32:56;;;;;;;11.07;3.05;;;16.10;99.90;;;;;;5072511;28;20450;-75
2022/10/24 05:35:21;;;;;;;15.57;4.50;;;16.10;99.90;;;;;;5071467;28;20108;-73
2022/10/24 05:37:47;;;;;;;13.52;3.40;;;16.10;99.90;;;;;;5072213;28;20040;-74
2022/10/24 05:40:13;;;;;;;7.10;2.45;;;16.10;99.90;;;;;;5072180;28;20053;-75
2022/10/24 05:42:39;;;;;;;9.77;2.75;;;16.10;99.90;;;;;;5072054;28;20047;-74
2022/10/24 05:45:07;;;;;;;4.95;2.47;;;16.10;99.90;;;;;;5072150;28;20391;-74
2022/10/24 05:47:32;;;;;;;12.60;2.80;;;16.10;99.90;;;;;;5071905;28;20423;-75
2022/10/24 05:49:58;;;;;;;13.30;3.55;;;16.20;99.90;;;;;;5072213;28;20036;-75
2022/10/24 05:52:24;;;;;;;18.63;3.97;;;16.20;99.90;;;;;;5071714;28;20222;-74
2022/10/24 05:54:49;;;;;;;5.50;2.15;;;16.20;99.90;;;;;;5071710;28;20037;-73
2022/10/24 05:57:15;;;;;;;8.48;2.75;;;16.20;99.90;;;;;;5071275;28;20103;-75
2022/10/24 05:59:41;;;;;;;15.40;3.08;;;16.30;99.90;;;;;;5071620;28;20043;-76
2022/10/24 06:02:09;;;;;;;7.32;2.78;;;16.20;99.90;;;;;;5070954;28;20027;-74
2022/10/24 06:04:35;;;;;;;9.88;2.85;;;16.20;99.90;;;;;;5071446;28;20406;-74
2022/10/24 06:07:01;;;;;;;6.82;2.72;;;16.20;99.90;;;;;;5071485;28;20379;-76
2022/10/24 06:09:26;;;;;;;13.48;3.65;;;16.30;99.90;;;;;;5071501;28;20097;-78
2022/10/24 06:11:52;;;;;;;13.73;3.20;;;16.20;99.90;;;;;;5064819;28;20474;-77
2022/10/24 06:14:17;;;;;;;12.70;2.55;;;16.20;99.90;;;;;;5067277;28;20055;-77
2022/10/24 06:16:43;;;;;;;11.23;3.10;;;16.30;99.90;;;;;;5050348;28;20505;-78
2022/10/24 06:19:09;;;;;;;16.63;4.53;;;16.20;99.90;;;;;;5050383;28;20378;-77
2022/10/24 06:21:34;;;;;;;11.52;3.17;;;16.20;99.90;;;;;;5051251;28;20074;-78
2022/10/24 06:24:00;;;;;;;12.88;2.97;;;16.30;99.90;;;;;;5051643;28;20106;-78
2022/10/24 06:26:26;;;;;;;10.82;4.88;;;16.30;99.90;;;;;;5051572;28;20103;-78
2022/10/24 06:28:51;;;;;;;15.90;4.57;;;16.30;99.90;;;;;;5050279;28;20485;-77
2022/10/24 06:31:19;;;;;;;11.95;4.70;;;16.30;99.90;;;;;;5051148;28;20029;-82
2022/10/24 06:33:45;;;;;;;8.82;3.13;;;16.30;99.90;;;;;;5051396;28;20340;-81
2022/10/24 06:36:10;;;;;;;16.10;2.95;;;16.30;99.90;;;;;;5051494;28;20025;-80
2022/10/24 06:38:36;;;;;;;10.23;3.13;;;16.40;99.90;;;;;;5051598;28;20021;-80
2022/10/24 06:41:07;;;;;;;8.60;2.83;;;16.40;99.90;;;;;;5051668;28;20021;-83
2022/10/24 06:43:33;;;;;;;6.43;2.70;;;16.40;99.90;;;;;;5067068;28;20417;-81
2022/10/24 06:45:58;;;;;;;12.77;4.75;;;16.40;99.90;;;;;;5066822;28;20040;-78
2022/10/24 06:48:24;;;;;;;16.25;5.18;;;16.40;99.90;;;;;;5051126;28;20022;-77
2022/10/24 06:50:50;;;;;;;7.88;3.90;;;16.50;99.90;;;;;;5050926;28;20033;-77
2022/10/24 06:53:15;;;;;;;10.15;3.38;;;16.50;99.90;;;;;;5051362;28;20090;-79
2022/10/24 06:55:41;;;;;;;8.25;3.58;;;16.50;99.90;;;;;;5051138;28;20394;-78
2022/10/24 06:58:07;;;;;;;12.75;2.72;;;16.50;99.90;;;;;;5051050;28;20021;-76
2022/10/24 07:00:33;;;;;;;12.18;3.22;;;16.50;99.90;;;;;;5050892;28;20048;-76
2022/10/24 07:02:59;;;;;;;11.63;2.33;;;16.60;99.90;;;;;;5051088;28;20359;-76
2022/10/24 07:05:25;;;;;;;9.45;3.00;;;16.60;99.90;;;;;;5051252;28;20021;-75
2022/10/24 07:07:51;;;;;;;9.85;3.03;;;16.60;99.90;;;;;;5050920;28;20033;-75
2022/10/24 07:10:16;;;;;;;10.40;2.33;;;16.60;99.90;;;;;;5052655;28;20182;-75
2022/10/24 07:12:42;;;;;;;10.32;2.72;;;16.70;99.90;;;;;;5054901;28;20099;-75
2022/10/24 07:15:08;;;;;;;10.73;2.70;;;16.70;99.90;;;;;;5054882;28;20025;-77
2022/10/24 07:17:42;;;;;;;21.67;5.53;;;16.70;99.90;;;;;;5055093;28;20029;-73
2022/10/24 07:20:09;;;;;;;25.60;4.85;;;16.80;99.90;;;;;;5055367;28;20021;-78
2022/10/24 07:22:35;;;;;;;11.83;3.37;;;16.80;99.90;;;;;;5070371;28;20067;-75
2022/10/24 07:25:01;;;;;;;9.88;2.92;;;16.80;99.90;;;;;;5054773;28;20079;-76
2022/10/24 07:27:27;;;;;;;9.05;2.30;;;16.90;99.90;;;;;;5054923;28;20053;-76
2022/10/24 07:29:53;;;;;;;13.65;2.75;;;16.90;99.90;;;;;;5070459;28;20474;-76
2022/10/24 07:32:19;;;;;;;11.43;2.50;;;16.90;99.90;;;;;;5070649;28;20347;-76
2022/10/24 07:34:46;;;;;;;10.43;3.35;;;16.90;99.90;;;;;;5054436;28;20033;-76
2022/10/24 07:37:13;;;;;;;14.45;2.47;;;17.10;99.90;;;;;;5054641;28;20047;-76
2022/10/24 07:39:39;;;;;;;14.93;2.92;;;17.10;99.90;;;;;;5054533;28;20029;-75
2022/10/24 07:42:04;;;;;;;10.85;2.42;;;17.10;99.90;;;;;;5054593;28;20032;-77
2022/10/24 07:44:30;;;;;;;6.88;2.63;;;17.20;99.90;;;;;;5054378;28;20427;-77
2022/10/24 07:46:56;;;;;;;10.55;2.88;;;17.20;99.90;;;;;;5054478;28;20025;-77
2022/10/24 07:49:22;;;;;;;10.38;3.72;;;17.30;99.90;;;;;;5054289;28;20055;-78
2022/10/24 07:51:48;;;;;;;18.17;4.70;;;17.40;99.90;;;;;;5054227;28;20075;-77
2022/10/24 07:54:13;;;;;;;9.98;2.63;;;17.40;99.90;;;;;;5070352;28;20033;-78
2022/10/24 07:56:39;;;;;;;11.52;2.20;;;17.40;99.90;;;;;;5070128;28;20120;-79
2022/10/24 07:59:04;;;;;;;12.25;2.63;;;17.50;99.90;;;;;;5054621;28;20104;-78
2022/10/24 08:01:30;;;;;;;7.70;2.38;;;17.60;99.90;;;;;;5054217;28;20048;-77
2022/10/24 08:03:56;;;;;;;7.57;2.30;;;17.60;99.90;;;;;;5052988;28;20470;-75
2022/10/24 08:06:27;;;;;;;8.65;2.47;;;17.70;99.90;;;;;;5053984;28;20060;-76
2022/10/24 08:08:52;;;;;;;7.60;2.30;;;17.70;99.90;;;;;;5053826;28;20053;-76
2022/10/24 08:11:23;;;;;;;13.05;3.42;;;17.80;99.90;;;;;;5054393;28;20076;-78
2022/10/24 08:13:51;;;;;;;9.25;2.20;;;17.90;99.90;;;;;;5053896;28;20060;-76
2022/10/24 08:16:19;;;;;;;10.90;2.75;;;17.90;99.90;;;;;;5054130;28;20035;-77
2022/10/24 08:18:46;;;;;;;9.40;2.40;;;17.90;99.90;;;;;;5053691;28;20025;-80
2022/10/24 08:21:14;;;;;;;14.20;2.40;;;18.00;99.90;;;;;;5052254;28;20108;-80
2022/10/24 08:23:43;;;;;;;12.77;2.47;;;18.10;99.90;;;;;;5069415;28;20048;-79
2022/10/24 08:26:13;;;;;;;10.48;2.83;;;18.20;99.90;;;;;;5069722;28;20047;-78
2022/10/24 08:28:39;;;;;;;8.18;2.15;;;18.30;99.90;;;;;;5069242;28;20029;-77
2022/10/24 08:31:07;;;;;;;6.15;2.05;;;18.40;99.90;;;;;;5053534;28;20025;-81
2022/10/24 08:33:34;;;;;;;8.27;2.53;;;18.50;99.90;;;;;;5053447;28;20043;-77
2022/10/24 08:36:06;;;;;;;9.73;2.15;;;18.60;99.90;;;;;;5053637;28;20029;-75
2022/10/24 08:38:32;;;;;;;5.05;1.77;;;18.60;99.90;;;;;;5069097;28;20090;-76
2022/10/24 08:40:58;;;;;;;9.52;2.28;;;18.70;99.90;;;;;;5053996;28;20100;-76
2022/10/24 08:43:25;;;;;;;7.53;2.70;;;18.80;99.90;;;;;;5053445;28;20564;-76
2022/10/24 08:45:57;;;;;;;5.90;2.00;;;18.80;99.90;;;;;;5053428;28;20041;-75
2022/10/24 08:48:28;;;;;;;11.82;2.85;;;18.90;99.90;;;;;;5068809;28;20029;-78
2022/10/24 08:51:01;;;;;;;7.78;2.45;;;18.90;99.90;;;;;;5053370;28;20040;-78
2022/10/24 08:53:30;;;;;;;8.60;2.10;;;19.00;99.90;;;;;;5053671;28;20028;-78
2022/10/24 08:55:59;;;;;;;10.52;2.10;;;19.10;99.90;;;;;;5052076;28;20052;-78
2022/10/24 08:58:37;;;;;;;12.23;2.35;;;19.20;99.90;;;;;;5052979;28;20291;-76
2022/10/24 09:01:12;;;;;;;8.63;2.42;;;19.30;99.90;;;;;;5053051;28;20133;-76
2022/10/24 09:03:44;;;;;;;12.43;2.38;;;19.30;99.60;;;;;;5052996;28;20030;-77
2022/10/24 09:06:31;;;;;;;8.43;2.28;;;19.40;99.50;;;;;;5052960;28;20037;-77
2022/10/24 09:09:08;;;;;;;10.85;2.20;;;19.40;99.00;;;;;;5068485;28;20056;-78
2022/10/24 09:11:55;;;;;;;12.60;1.77;;;19.50;98.90;;;;;;5052619;28;20096;-78
2022/10/24 09:14:31;;;;;;;10.60;1.90;;;19.60;99.20;;;;;;5053133;28;20064;-77
2022/10/24 09:17:01;;;;;;;9.52;2.70;;;19.80;98.70;;;;;;5052730;28;20091;-74
2022/10/24 09:19:30;;;;;;;6.25;2.22;;;19.80;98.40;;;;;;5068072;28;20025;-75
2022/10/24 09:21:57;;;;;;;6.78;1.58;;;19.90;98.00;;;;;;5052611;28;20029;-77
2022/10/24 09:24:38;;;;;;;13.30;2.13;;;20.00;98.70;;;;;;5052504;28;20037;-77
2022/10/24 09:27:10;;;;;;;9.65;2.00;;;20.10;97.80;;;;;;5052450;28;20301;-77
2022/10/24 09:29:36;;;;;;;5.70;2.13;;;20.00;98.00;;;;;;5052236;28;20101;-77
2022/10/24 09:32:03;;;;;;;15.00;2.53;;;19.90;97.80;;;;;;5067593;28;20029;-77
2022/10/24 09:34:29;;;;;;;8.02;2.00;;;20.10;97.90;;;;;;5052573;28;20480;-76
2022/10/24 09:36:55;;;;;;;19.73;3.85;;;20.30;97.10;;;;;;5052335;28;20546;-77
2022/10/24 09:39:27;;;;;;;8.60;2.15;;;20.60;97.40;;;;;;5052344;28;20036;-86
2022/10/24 09:41:53;;;;;;;9.65;2.30;;;21.10;96.70;;;;;;5052112;28;20040;-75
2022/10/24 09:44:34;;;;;;;12.48;1.90;;;21.50;96.00;;;;;;5051292;28;20048;-75
2022/10/24 09:47:02;;;;;;;9.35;2.38;;;22.00;95.50;;;;;;5052018;28;20135;-78
2022/10/24 09:49:33;;;;;;;12.48;2.15;;;22.50;96.30;;;;;;5050840;28;20094;-77
2022/10/24 09:52:25;;;;;;;13.73;2.10;;;23.50;94.90;;;;;;5051963;28;20466;-77
2022/10/24 09:55:15;;;;;;;7.07;2.45;;;23.80;93.90;;;;;;5051810;28;20045;-76
2022/10/24 09:57:41;;;;;;;8.05;1.63;;;24.10;92.20;;;;;;5044251;28;20432;-77
2022/10/24 10:00:23;;;;;;;6.07;1.67;;;24.60;93.20;;;;;;5067257;28;20025;-78
2022/10/24 10:03:03;;;;;;;9.35;1.95;;;24.60;92.20;;;;;;5050399;28;20028;-78
2022/10/24 10:05:47;;;;;;;10.02;2.65;;;25.10;92.30;;;;;;5051993;28;20486;-77
2022/10/24 10:08:20;;;;;;;6.47;1.83;;;25.50;89.00;;;;;;5051882;28;20041;-76
2022/10/24 10:11:09;;;;;;;6.78;1.92;;;26.20;91.80;;;;;;5051821;28;20385;-77
2022/10/24 10:13:58;;;;;;;7.15;1.92;;;26.60;86.90;;;;;;5051896;28;20041;-78
2022/10/24 10:16:36;;;;;;;6.57;1.67;;;27.30;86.90;;;;;;5051564;28;20544;-78
2022/10/24 10:19:23;;;;;;;8.35;1.80;;;26.50;82.80;;;;;;5050319;28;20475;-77
2022/10/24 10:22:25;;;;;;;12.82;2.10;;;26.00;85.40;;;;;;5050276;28;20037;-78
2022/10/24 10:24:52;;;;;;;8.80;1.77;;;25.30;84.30;;;;;;5051279;28;20044;-77
2022/10/24 10:27:32;;;;;;;12.00;2.63;;;24.70;88.10;;;;;;5051171;28;20083;-76
2022/10/24 10:30:15;;;;;;;9.50;2.58;;;24.60;86.60;;;;;;5051189;28;20028;-79
2022/10/24 10:32:53;;;;;;;21.25;3.08;;;24.40;87.50;;;;;;5051105;28;20435;-78
2022/10/24 10:35:32;;;;;;;7.68;2.13;;;24.00;88.80;;;;;;5051515;28;20025;-79
2022/10/24 10:38:02;;;;;;;7.47;1.75;;;23.70;89.10;;;;;;5051315;28;20040;-77
2022/10/24 10:40:44;;;;;;;12.88;2.45;;;23.10;88.60;;;;;;5066653;28;20032;-77
2022/10/24 10:43:28;;;;;;;6.80;1.98;;;22.60;90.40;;;;;;5050958;28;20098;-78
2022/10/24 10:46:27;;;;;;;10.43;1.90;;;22.50;91.20;;;;;;5066410;28;21984;-77
2022/10/24 10:49:01;;;;;;;6.47;2.05;;;22.10;91.10;;;;;;5051038;28;20056;-77
2022/10/24 10:51:55;;;;;;;11.80;2.17;;;22.10;91.60;;;;;;5050991;28;20351;-78
2022/10/24 10:54:34;;;;;;;7.18;1.95;;;21.70;92.00;;;;;;5051254;28;20360;-78
2022/10/24 10:57:06;;;;;;;12.13;2.28;;;21.40;92.20;;;;;;5066622;28;20515;-78
2022/10/24 10:59:57;;;;;;;6.47;2.15;;;21.30;92.40;;;;;;5050705;28;20371;-77
2022/10/24 11:02:34;;;;;;;7.75;2.00;;;21.20;92.80;;;;;;5051341;28;20299;-77
2022/10/24 11:05:09;;;;;;;6.32;2.00;;;21.20;93.00;;;;;;5049886;28;20445;-76
2022/10/24 11:08:03;;;;;;;11.10;1.92;;;21.00;93.00;;;;;;5050632;28;20522;-77
2022/10/24 11:10:36;;;;;;;7.32;1.70;;;20.90;93.30;;;;;;5050811;28;20044;-76
2022/10/24 11:13:06;;;;;;;17.33;2.42;;;20.90;93.50;;;;;;5050704;28;20106;-76
2022/10/24 11:15:39;;;;;;;7.60;1.80;;;20.90;93.40;;;;;;5066293;28;20029;-75
2022/10/24 11:18:18;;;;;;;6.68;1.98;;;20.80;93.40;;;;;;5050952;28;20075;-75
2022/10/24 11:20:59;;;;;;;6.28;1.48;;;20.70;93.40;;;;;;5050752;28;20028;-76
2022/10/24 11:23:40;;;;;;;9.25;1.90;;;20.70;93.60;;;;;;5051011;28;20067;-74
2022/10/24 11:26:17;;;;;;;7.80;1.75;;;20.50;93.20;;;;;;5050657;28;20043;-76
2022/10/24 11:29:01;;;;;;;14.88;5.55;;;20.50;93.00;;;;;;5050837;28;20029;-76
2022/10/24 11:31:36;;;;;;;44.58;23.65;;;20.50;92.80;;;;;;5050645;28;20037;-74
2022/10/24 11:34:33;;;;;;;5.95;1.80;;;20.50;93.00;;;;;;5050553;28;20114;-75
2022/10/24 11:37:21;;;;;;;6.95;1.80;;;20.40;92.70;;;;;;5050272;28;20061;-74
2022/10/24 11:40:02;;;;;;;4.65;1.15;;;20.30;92.40;;;;;;5050347;28;20033;-77
2022/10/24 11:42:31;;;;;;;9.40;1.40;;;20.20;92.50;;;;;;5050543;28;20113;-77
2022/10/24 11:45:06;;;;;;;7.35;2.00;;;20.20;92.90;;;;;;5050183;28;20033;-75
2022/10/24 11:48:01;;;;;;;11.52;1.75;;;20.20;92.70;;;;;;5066044;28;20534;-74
2022/10/24 11:50:51;;;;;;;4.95;1.38;;;20.10;92.60;;;;;;5050716;28;20328;-77
2022/10/24 11:53:16;;;;;;;6.20;1.50;;;20.10;92.70;;;;;;5049059;28;20123;-77
2022/10/24 11:56:22;;;;;;;4.43;1.00;;;20.10;92.70;;;;;;5050987;28;20112;-77
2022/10/24 11:59:00;;;;;;;6.32;1.13;;;20.00;92.10;;;;;;5051559;28;20098;-77
2022/10/24 12:01:57;;;;;;;4.35;1.33;;;20.00;92.60;;;;;;5053635;28;20037;-76
2022/10/24 12:04:44;;;;;;;7.47;1.27;;;19.90;92.70;;;;;;5022419;28;20022;-76
2022/10/24 12:07:25;;;;;;;7.85;1.63;;;20.00;92.90;;;;;;5053634;28;20053;-75
2022/10/24 12:10:18;;;;;;;7.93;1.50;;;19.90;92.60;;;;;;5053627;28;20407;-75
2022/10/24 12:12:44;;;;;;;6.75;1.17;;;19.90;92.60;;;;;;5053510;28;20060;-76
2022/10/24 12:15:36;;;;;;;3.92;1.08;;;19.90;92.80;;;;;;5053681;28;20029;-75
2022/10/24 12:18:08;;;;;;;6.18;1.15;;;19.90;92.60;;;;;;5053457;28;20112;-75
2022/10/24 12:20:35;;;;;;;6.57;1.58;;;19.90;92.60;;;;;;5053524;28;20031;-75
2022/10/24 12:23:01;;;;;;;6.78;1.30;;;19.90;92.70;;;;;;5069572;28;20028;-76
2022/10/24 12:25:36;;;;;;;5.45;1.08;;;20.00;93.10;;;;;;5053451;28;20028;-75
2022/10/24 12:28:16;;;;;;;9.68;1.73;;;20.00;92.60;;;;;;5053463;28;20037;-75
2022/10/24 12:30:42;;;;;;;5.68;1.20;;;20.10;92.50;;;;;;5053590;28;20116;-76
2022/10/24 12:33:26;;;;;;;6.65;1.10;;;20.00;92.40;;;;;;5068934;28;20138;-75
2022/10/24 12:35:55;;;;;;;7.63;1.73;;;20.10;92.40;;;;;;5052142;28;20051;-75
2022/10/24 12:38:27;;;;;;;7.60;1.23;;;20.20;92.60;;;;;;5053877;28;20025;-74
2022/10/24 12:40:57;;;;;;;4.00;1.50;;;20.10;92.10;;;;;;5053184;28;20048;-75
2022/10/24 12:43:35;;;;;;;5.22;1.27;;;20.20;92.30;;;;;;5052195;28;20114;-77
2022/10/24 12:46:23;;;;;;;8.18;1.27;;;20.10;92.10;;;;;;5053009;28;20071;-74
2022/10/24 12:48:57;;;;;;;13.73;1.70;;;20.10;92.10;;;;;;5022964;28;20033;-74
2022/10/24 12:51:32;;;;;;;5.55;1.17;;;20.00;92.30;;;;;;5052969;28;20033;-76
2022/10/24 12:54:15;;;;;;;6.07;1.67;;;20.00;91.90;;;;;;5053007;28;20056;-77
2022/10/24 12:56:50;;;;;;;6.88;1.90;;;19.90;91.70;;;;;;5052927;28;20036;-75
2022/10/24 12:59:26;;;;;;;9.43;1.38;;;20.00;91.80;;;;;;5069186;28;20102;-76
2022/10/24 13:02:12;;;;;;;7.32;1.45;;;19.90;91.70;;;;;;5052992;28;20128;-76
2022/10/24 13:04:46;;;;;;;6.78;0.90;;;19.90;91.80;;;;;;5052529;28;20040;-77